Charter Quote
Worldwide +44-20-3874-8091 Call
Select Language Lang
SAFETY RELIABILITY EXPERIENCE

Avalon Airport (YMAV) - Jet Charter Services

AIRPORT INFORMATION
ICAOYMAV
IATAAVV
LOCATIONAvalon, Australia
FACILITY TYPEAIRPORT
Runway Length (ft) Width (ft) Surface Type Elevation (ft)
36/18 10000 148 ASP 34.98361

At Paramount Business Jets you can hire chartered private jets to and from Avalon Airport with as little as 4 hours of notice. All flights booked via Paramount Business Jets are operated by certified direct air carriers that meet and exceed the FAA part 135 and 121 protocol or a foreign equivalent safety authority. Furthermore, Paramount Business Jets subscribes to ARGUS for their third party safety checks of operators, aircraft, and crews prior each and every flight to and from Avalon Airport and worldwide.

  • Quote a trip using Avalon Airport or call us 24/7 - 365 days a year at +44-20-3874-8091.
Questions? Call +44-20-3874-8091

FBOs at Avalon Airport, YMAV, AVV

NAME ADDRESS PHONE WEBSITE
Avalon Airport Australia  LOCKED BAG #9  (613) 522-9462   

METAR Weather Data at Avalon Airport, YMAV, AVV

STATIONYMAV
OBSERVEDWed Jan 23, 21:30 UTC
NOWWed Jan 23, 21:56 UTC
AGE26 min ago
WINDNE at 6 mph
VISIBILITY16 miles
METARYMAV 232130Z AUTO 04005KT 010V070 9999 // NCD 21/18 Q1013 RF00.0/000.0

Call us on +44-20-3874-8091 (24 Hours) to Hire a Private Jet or Get a Quick Quote.

Find Airports Near any Location

Processing
...